Penns, Mississippi
Current Conditions -  °F | °C
As of 11:50 AM on Thursday 30 Oct 2014 (Local Time) from KGTR Reporting Station
Clear Clear  
Wind Chill: 66°   Ceiling: Unl
Heat Index: 66°   Visibility: 10mi
Dew Point: 36°   Wind: 12mph
Humidity: 32%   Direction: 360°N
Pressure: 30.14"   Gusts: NA
Location:  33.3415°N, 88.5175°W
Report Text: KGTR 301650Z 36010KT 10SM SKC 19/02 A3014
Loading
Personal Weather Stations






























Interactive Weather Map
Tropical Storm Tracking
New forecast layout! Learn more

10-Day Weather Forecast

Advertisements
Track Severe Weather on mobile